sensor_id;sensor_type;location;lat;lon;timestamp;temperature;humidity
21282;DHT22;10800;53.096;18.328;2023-05-08T00:04:51;4.90;99.90
21282;DHT22;10800;53.096;18.328;2023-05-08T00:09:56;4.60;99.90
21282;DHT22;10800;53.096;18.328;2023-05-08T00:15:22;4.60;99.90
21282;DHT22;10800;53.096;18.328;2023-05-08T00:20:27;4.60;99.90
21282;DHT22;10800;53.096;18.328;2023-05-08T00:25:50;4.50;99.90
21282;DHT22;10800;53.096;18.328;2023-05-08T00:31:16;4.50;99.90
21282;DHT22;10800;53.096;18.328;2023-05-08T00:36:21;4.40;99.90
21282;DHT22;10800;53.096;18.328;2023-05-08T00:41:26;4.40;99.90
21282;DHT22;10800;53.096;18.328;2023-05-08T00:46:37;4.40;99.90
21282;DHT22;10800;53.096;18.328;2023-05-08T00:52:05;4.30;99.90
21282;DHT22;10800;53.096;18.328;2023-05-08T00:57:19;4.20;99.90
21282;DHT22;10800;53.096;18.328;2023-05-08T01:02:24;4.20;99.90
21282;DHT22;10800;53.096;18.328;2023-05-08T01:07:30;4.20;99.90
21282;DHT22;10800;53.096;18.328;2023-05-08T01:18:37;4.00;99.90
21282;DHT22;10800;53.096;18.328;2023-05-08T01:35:49;3.70;99.90
21282;DHT22;10800;53.096;18.328;2023-05-08T01:41:18;3.60;99.90
21282;DHT22;10800;53.096;18.328;2023-05-08T01:46:46;3.50;99.90
21282;DHT22;10800;53.096;18.328;2023-05-08T01:52:17;3.50;99.90
21282;DHT22;10800;53.096;18.328;2023-05-08T01:57:23;3.50;99.90
21282;DHT22;10800;53.096;18.328;2023-05-08T02:02:32;3.40;99.90
21282;DHT22;10800;53.096;18.328;2023-05-08T02:07:41;3.30;99.90
21282;DHT22;10800;53.096;18.328;2023-05-08T02:13:19;3.30;99.90
21282;DHT22;10800;53.096;18.328;2023-05-08T02:18:50;3.20;99.90
21282;DHT22;10800;53.096;18.328;2023-05-08T02:24:01;3.20;99.90
21282;DHT22;10800;53.096;18.328;2023-05-08T02:29:11;3.20;99.90
21282;DHT22;10800;53.096;18.328;2023-05-08T02:34:16;3.10;99.90
21282;DHT22;10800;53.096;18.328;2023-05-08T02:39:33;3.10;99.90
21282;DHT22;10800;53.096;18.328;2023-05-08T02:44:46;3.00;99.90
21282;DHT22;10800;53.096;18.328;2023-05-08T02:50:02;3.00;99.90
21282;DHT22;10800;53.096;18.328;2023-05-08T02:55:21;2.90;99.90
21282;DHT22;10800;53.096;18.328;2023-05-08T03:01:02;2.90;99.90
21282;DHT22;10800;53.096;18.328;2023-05-08T03:06:19;2.80;99.90
21282;DHT22;10800;53.096;18.328;2023-05-08T03:11:31;2.90;99.90
21282;DHT22;10800;53.096;18.328;2023-05-08T03:16:42;2.90;99.90
21282;DHT22;10800;53.096;18.328;2023-05-08T03:21:58;2.90;99.90
21282;DHT22;10800;53.096;18.328;2023-05-08T03:27:18;2.90;99.90
21282;DHT22;10800;53.096;18.328;2023-05-08T03:32:26;3.00;99.90
21282;DHT22;10800;53.096;18.328;2023-05-08T03:37:41;3.10;99.90
21282;DHT22;10800;53.096;18.328;2023-05-08T03:43:09;3.00;99.90
21282;DHT22;10800;53.096;18.328;2023-05-08T03:48:15;3.10;99.90
21282;DHT22;10800;53.096;18.328;2023-05-08T03:53:43;3.20;99.90
21282;DHT22;10800;53.096;18.328;2023-05-08T03:59:46;3.20;99.90
21282;DHT22;10800;53.096;18.328;2023-05-08T04:05:13;3.20;99.90
21282;DHT22;10800;53.096;18.328;2023-05-08T04:10:32;3.30;99.90
21282;DHT22;10800;53.096;18.328;2023-05-08T04:15:48;3.30;99.90
21282;DHT22;10800;53.096;18.328;2023-05-08T04:20:56;3.40;99.90
21282;DHT22;10800;53.096;18.328;2023-05-08T04:26:03;3.40;99.90
21282;DHT22;10800;53.096;18.328;2023-05-08T04:31:09;3.60;99.90
21282;DHT22;10800;53.096;18.328;2023-05-08T04:36:34;3.70;99.90
21282;DHT22;10800;53.096;18.328;2023-05-08T04:41:47;3.90;99.90
21282;DHT22;10800;53.096;18.328;2023-05-08T04:46:58;4.20;99.90
21282;DHT22;10800;53.096;18.328;2023-05-08T04:52:09;4.30;99.90
21282;DHT22;10800;53.096;18.328;2023-05-08T04:57:15;4.40;99.90
21282;DHT22;10800;53.096;18.328;2023-05-08T05:02:25;4.70;99.90
21282;DHT22;10800;53.096;18.328;2023-05-08T05:07:37;5.00;99.90
21282;DHT22;10800;53.096;18.328;2023-05-08T05:12:44;5.20;99.90
21282;DHT22;10800;53.096;18.328;2023-05-08T05:17:51;5.40;99.90
21282;DHT22;10800;53.096;18.328;2023-05-08T05:22:59;5.90;99.90
21282;DHT22;10800;53.096;18.328;2023-05-08T05:28:06;6.40;99.90
21282;DHT22;10800;53.096;18.328;2023-05-08T05:33:33;6.80;99.90
21282;DHT22;10800;53.096;18.328;2023-05-08T05:39:10;7.30;99.90
21282;DHT22;10800;53.096;18.328;2023-05-08T05:44:19;7.90;99.90
21282;DHT22;10800;53.096;18.328;2023-05-08T05:49:29;8.50;99.90
21282;DHT22;10800;53.096;18.328;2023-05-08T05:54:37;9.00;99.90
21282;DHT22;10800;53.096;18.328;2023-05-08T05:59:57;9.70;99.90
21282;DHT22;10800;53.096;18.328;2023-05-08T06:05:18;10.40;99.90
21282;DHT22;10800;53.096;18.328;2023-05-08T06:10:26;10.90;99.90
21282;DHT22;10800;53.096;18.328;2023-05-08T06:15:48;11.40;99.90
21282;DHT22;10800;53.096;18.328;2023-05-08T06:21:01;12.10;99.90
21282;DHT22;10800;53.096;18.328;2023-05-08T06:26:08;12.50;99.90
21282;DHT22;10800;53.096;18.328;2023-05-08T06:31:13;13.00;99.90
21282;DHT22;10800;53.096;18.328;2023-05-08T06:36:20;13.60;99.90
21282;DHT22;10800;53.096;18.328;2023-05-08T06:41:25;14.20;99.60
21282;DHT22;10800;53.096;18.328;2023-05-08T06:46:31;14.60;97.80
21282;DHT22;10800;53.096;18.328;2023-05-08T06:51:36;14.90;93.60
21282;DHT22;10800;53.096;18.328;2023-05-08T06:56:42;15.10;89.70
21282;DHT22;10800;53.096;18.328;2023-05-08T07:01:48;15.10;86.00
21282;DHT22;10800;53.096;18.328;2023-05-08T07:06:53;14.60;76.90
21282;DHT22;10800;53.096;18.328;2023-05-08T07:11:59;14.90;80.70
21282;DHT22;10800;53.096;18.328;2023-05-08T07:17:04;15.70;78.60
21282;DHT22;10800;53.096;18.328;2023-05-08T07:22:14;15.60;74.50
21282;DHT22;10800;53.096;18.328;2023-05-08T07:27:19;15.10;75.90
21282;DHT22;10800;53.096;18.328;2023-05-08T07:32:26;15.80;76.20
21282;DHT22;10800;53.096;18.328;2023-05-08T07:38:16;16.30;68.80
21282;DHT22;10800;53.096;18.328;2023-05-08T07:43:59;16.30;65.70
21282;DHT22;10800;53.096;18.328;2023-05-08T07:49:37;16.80;68.40
21282;DHT22;10800;53.096;18.328;2023-05-08T07:54:42;16.40;67.20
21282;DHT22;10800;53.096;18.328;2023-05-08T07:59:52;17.30;72.80
21282;DHT22;10800;53.096;18.328;2023-05-08T08:05:32;16.90;62.70
21282;DHT22;10800;53.096;18.328;2023-05-08T08:11:16;16.80;65.20
21282;DHT22;10800;53.096;18.328;2023-05-08T08:16:23;17.30;67.30
21282;DHT22;10800;53.096;18.328;2023-05-08T08:21:56;18.20;66.00
21282;DHT22;10800;53.096;18.328;2023-05-08T08:27:09;17.70;65.20
21282;DHT22;10800;53.096;18.328;2023-05-08T08:32:39;18.30;65.70
21282;DHT22;10800;53.096;18.328;2023-05-08T08:37:51;18.40;62.10
21282;DHT22;10800;53.096;18.328;2023-05-08T08:42:58;19.30;66.60
21282;DHT22;10800;53.096;18.328;2023-05-08T08:48:19;18.80;60.90
21282;DHT22;10800;53.096;18.328;2023-05-08T08:53:33;19.00;60.10
21282;DHT22;10800;53.096;18.328;2023-05-08T08:58:52;18.40;56.90
21282;DHT22;10800;53.096;18.328;2023-05-08T09:03:58;18.60;61.20
21282;DHT22;10800;53.096;18.328;2023-05-08T09:09:13;20.00;56.00
21282;DHT22;10800;53.096;18.328;2023-05-08T09:14:19;19.20;54.60
21282;DHT22;10800;53.096;18.328;2023-05-08T09:19:26;18.90;54.90
21282;DHT22;10800;53.096;18.328;2023-05-08T09:24:55;18.50;55.10
21282;DHT22;10800;53.096;18.328;2023-05-08T09:30:08;19.30;53.10
21282;DHT22;10800;53.096;18.328;2023-05-08T09:35:44;19.90;49.00
21282;DHT22;10800;53.096;18.328;2023-05-08T09:41:09;20.00;51.00
21282;DHT22;10800;53.096;18.328;2023-05-08T09:46:28;20.60;49.70
21282;DHT22;10800;53.096;18.328;2023-05-08T09:52:14;20.30;49.80
21282;DHT22;10800;53.096;18.328;2023-05-08T09:57:29;20.20;47.90
21282;DHT22;10800;53.096;18.328;2023-05-08T10:03:00;20.00;47.20
21282;DHT22;10800;53.096;18.328;2023-05-08T10:08:28;20.10;48.60
21282;DHT22;10800;53.096;18.328;2023-05-08T10:13:47;20.80;51.20
21282;DHT22;10800;53.096;18.328;2023-05-08T10:18:54;19.20;49.70
21282;DHT22;10800;53.096;18.328;2023-05-08T10:24:05;19.40;50.00
21282;DHT22;10800;53.096;18.328;2023-05-08T10:29:17;19.40;50.90
21282;DHT22;10800;53.096;18.328;2023-05-08T10:34:30;19.90;52.20
21282;DHT22;10800;53.096;18.328;2023-05-08T10:39:38;21.30;48.70
21282;DHT22;10800;53.096;18.328;2023-05-08T10:44:55;20.50;47.30
21282;DHT22;10800;53.096;18.328;2023-05-08T10:50:43;20.30;47.40
21282;DHT22;10800;53.096;18.328;2023-05-08T10:56:10;18.80;50.20
21282;DHT22;10800;53.096;18.328;2023-05-08T11:01:37;19.90;50.40
21282;DHT22;10800;53.096;18.328;2023-05-08T11:06:52;20.20;49.70
21282;DHT22;10800;53.096;18.328;2023-05-08T11:12:25;19.10;46.40
21282;DHT22;10800;53.096;18.328;2023-05-08T11:18:06;19.30;47.60
21282;DHT22;10800;53.096;18.328;2023-05-08T11:23:29;20.60;50.00
21282;DHT22;10800;53.096;18.328;2023-05-08T11:28:58;20.30;45.50
21282;DHT22;10800;53.096;18.328;2023-05-08T11:40:18;20.20;46.70
21282;DHT22;10800;53.096;18.328;2023-05-08T11:45:12;19.40;46.60
21282;DHT22;10800;53.096;18.328;2023-05-08T11:51:09;20.00;47.30
21282;DHT22;10800;53.096;18.328;2023-05-08T11:56:37;19.70;47.60
21282;DHT22;10800;53.096;18.328;2023-05-08T12:01:57;20.60;44.50
21282;DHT22;10800;53.096;18.328;2023-05-08T12:07:17;20.40;47.30
21282;DHT22;10800;53.096;18.328;2023-05-08T12:12:36;21.10;47.80
21282;DHT22;10800;53.096;18.328;2023-05-08T12:23:34;21.00;47.60
21282;DHT22;10800;53.096;18.328;2023-05-08T12:28:54;20.20;47.40
21282;DHT22;10800;53.096;18.328;2023-05-08T12:34:16;20.60;44.30
21282;DHT22;10800;53.096;18.328;2023-05-08T12:39:36;20.30;45.40
21282;DHT22;10800;53.096;18.328;2023-05-08T12:44:54;20.60;45.10
21282;DHT22;10800;53.096;18.328;2023-05-08T12:49:56;20.90;43.10
21282;DHT22;10800;53.096;18.328;2023-05-08T12:55:01;21.30;44.10
21282;DHT22;10800;53.096;18.328;2023-05-08T13:00:18;21.40;43.50
21282;DHT22;10800;53.096;18.328;2023-05-08T13:05:23;20.60;43.90
21282;DHT22;10800;53.096;18.328;2023-05-08T13:10:50;20.70;42.70
21282;DHT22;10800;53.096;18.328;2023-05-08T13:15:56;20.90;42.30
21282;DHT22;10800;53.096;18.328;2023-05-08T13:21:10;19.90;42.70
21282;DHT22;10800;53.096;18.328;2023-05-08T13:26:16;20.30;43.80
21282;DHT22;10800;53.096;18.328;2023-05-08T13:31:23;19.70;42.60
21282;DHT22;10800;53.096;18.328;2023-05-08T13:36:29;20.30;44.60
21282;DHT22;10800;53.096;18.328;2023-05-08T13:41:35;19.80;44.60
21282;DHT22;10800;53.096;18.328;2023-05-08T13:46:44;19.70;45.20
21282;DHT22;10800;53.096;18.328;2023-05-08T13:51:50;20.20;45.40
21282;DHT22;10800;53.096;18.328;2023-05-08T13:57:23;20.40;46.30
21282;DHT22;10800;53.096;18.328;2023-05-08T14:02:46;20.40;43.40
21282;DHT22;10800;53.096;18.328;2023-05-08T14:07:53;19.40;45.00
21282;DHT22;10800;53.096;18.328;2023-05-08T14:13:01;19.60;44.70
21282;DHT22;10800;53.096;18.328;2023-05-08T14:18:21;19.60;44.60
21282;DHT22;10800;53.096;18.328;2023-05-08T14:23:32;19.50;45.00
21282;DHT22;10800;53.096;18.328;2023-05-08T14:28:40;19.30;45.10
21282;DHT22;10800;53.096;18.328;2023-05-08T14:33:49;19.70;45.80
21282;DHT22;10800;53.096;18.328;2023-05-08T14:38:56;19.60;45.70
21282;DHT22;10800;53.096;18.328;2023-05-08T14:44:08;18.80;45.60
21282;DHT22;10800;53.096;18.328;2023-05-08T14:49:26;18.70;45.30
21282;DHT22;10800;53.096;18.328;2023-05-08T14:54:40;18.40;44.50
21282;DHT22;10800;53.096;18.328;2023-05-08T15:00:09;18.40;46.60
21282;DHT22;10800;53.096;18.328;2023-05-08T15:05:21;18.20;46.40
21282;DHT22;10800;53.096;18.328;2023-05-08T15:10:36;18.40;47.10
21282;DHT22;10800;53.096;18.328;2023-05-08T15:15:48;18.30;44.30
21282;DHT22;10800;53.096;18.328;2023-05-08T15:20:55;17.90;46.10
21282;DHT22;10800;53.096;18.328;2023-05-08T15:26:02;18.10;46.90
21282;DHT22;10800;53.096;18.328;2023-05-08T15:31:08;18.00;47.40
21282;DHT22;10800;53.096;18.328;2023-05-08T15:36:13;18.20;47.90
21282;DHT22;10800;53.096;18.328;2023-05-08T15:41:19;18.30;46.90
21282;DHT22;10800;53.096;18.328;2023-05-08T15:46:26;18.30;46.80
21282;DHT22;10800;53.096;18.328;2023-05-08T15:51:35;18.40;44.70
21282;DHT22;10800;53.096;18.328;2023-05-08T15:56:39;18.10;46.00
21282;DHT22;10800;53.096;18.328;2023-05-08T16:01:46;17.90;47.10
21282;DHT22;10800;53.096;18.328;2023-05-08T16:06:54;17.90;47.30
21282;DHT22;10800;53.096;18.328;2023-05-08T16:11:59;17.50;47.90
21282;DHT22;10800;53.096;18.328;2023-05-08T16:17:06;17.40;48.60
21282;DHT22;10800;53.096;18.328;2023-05-08T16:22:12;17.30;49.00
21282;DHT22;10800;53.096;18.328;2023-05-08T16:27:17;17.00;49.20
21282;DHT22;10800;53.096;18.328;2023-05-08T16:32:34;17.10;49.00
21282;DHT22;10800;53.096;18.328;2023-05-08T16:37:41;16.80;49.10
21282;DHT22;10800;53.096;18.328;2023-05-08T16:42:46;16.80;49.50
21282;DHT22;10800;53.096;18.328;2023-05-08T16:47:52;16.70;49.60
21282;DHT22;10800;53.096;18.328;2023-05-08T16:52:58;16.40;50.10
21282;DHT22;10800;53.096;18.328;2023-05-08T16:58:04;16.50;52.60
21282;DHT22;10800;53.096;18.328;2023-05-08T17:03:11;16.30;51.10
21282;DHT22;10800;53.096;18.328;2023-05-08T17:08:16;16.10;51.20
21282;DHT22;10800;53.096;18.328;2023-05-08T17:13:23;16.00;52.40
21282;DHT22;10800;53.096;18.328;2023-05-08T17:18:28;15.90;52.50
21282;DHT22;10800;53.096;18.328;2023-05-08T17:23:35;15.80;53.70
21282;DHT22;10800;53.096;18.328;2023-05-08T17:28:40;15.70;54.50
21282;DHT22;10800;53.096;18.328;2023-05-08T17:33:46;15.60;55.30
21282;DHT22;10800;53.096;18.328;2023-05-08T17:38:51;15.40;56.10
21282;DHT22;10800;53.096;18.328;2023-05-08T17:43:57;15.20;56.10
21282;DHT22;10800;53.096;18.328;2023-05-08T17:49:02;15.10;57.50
21282;DHT22;10800;53.096;18.328;2023-05-08T17:54:24;14.90;58.20
21282;DHT22;10800;53.096;18.328;2023-05-08T17:59:30;14.70;58.10
21282;DHT22;10800;53.096;18.328;2023-05-08T18:04:35;14.50;58.30
21282;DHT22;10800;53.096;18.328;2023-05-08T18:09:40;14.30;58.80
21282;DHT22;10800;53.096;18.328;2023-05-08T18:14:46;14.20;59.40
21282;DHT22;10800;53.096;18.328;2023-05-08T18:19:51;14.10;61.80
21282;DHT22;10800;53.096;18.328;2023-05-08T18:30:18;13.70;65.30
21282;DHT22;10800;53.096;18.328;2023-05-08T18:35:26;13.50;66.50
21282;DHT22;10800;53.096;18.328;2023-05-08T18:40:36;13.30;66.80
21282;DHT22;10800;53.096;18.328;2023-05-08T18:45:46;13.10;68.10
21282;DHT22;10800;53.096;18.328;2023-05-08T18:50:57;12.90;69.30
21282;DHT22;10800;53.096;18.328;2023-05-08T18:56:07;12.70;71.10
21282;DHT22;10800;53.096;18.328;2023-05-08T19:01:14;12.50;72.20
21282;DHT22;10800;53.096;18.328;2023-05-08T19:06:21;12.30;73.70
21282;DHT22;10800;53.096;18.328;2023-05-08T19:11:27;12.10;74.40
21282;DHT22;10800;53.096;18.328;2023-05-08T19:16:32;12.00;75.40
21282;DHT22;10800;53.096;18.328;2023-05-08T19:21:38;11.80;76.80
21282;DHT22;10800;53.096;18.328;2023-05-08T19:26:43;11.60;77.40
21282;DHT22;10800;53.096;18.328;2023-05-08T19:31:49;11.40;78.50
21282;DHT22;10800;53.096;18.328;2023-05-08T19:36:54;11.20;79.70
21282;DHT22;10800;53.096;18.328;2023-05-08T19:42:00;11.00;81.50
21282;DHT22;10800;53.096;18.328;2023-05-08T19:47:06;10.80;82.90
21282;DHT22;10800;53.096;18.328;2023-05-08T19:52:11;10.60;83.30
21282;DHT22;10800;53.096;18.328;2023-05-08T19:57:16;10.50;84.80
21282;DHT22;10800;53.096;18.328;2023-05-08T20:02:21;10.30;85.60
21282;DHT22;10800;53.096;18.328;2023-05-08T20:07:27;10.30;86.30
21282;DHT22;10800;53.096;18.328;2023-05-08T20:12:33;10.10;87.10
21282;DHT22;10800;53.096;18.328;2023-05-08T20:17:38;10.00;88.40
21282;DHT22;10800;53.096;18.328;2023-05-08T20:22:43;9.90;89.90
21282;DHT22;10800;53.096;18.328;2023-05-08T20:27:48;9.70;90.40
21282;DHT22;10800;53.096;18.328;2023-05-08T20:32:54;9.60;91.20
21282;DHT22;10800;53.096;18.328;2023-05-08T20:38:01;9.50;91.90
21282;DHT22;10800;53.096;18.328;2023-05-08T20:43:07;9.30;92.80
21282;DHT22;10800;53.096;18.328;2023-05-08T20:48:13;9.20;93.90
21282;DHT22;10800;53.096;18.328;2023-05-08T20:53:18;9.10;95.60
21282;DHT22;10800;53.096;18.328;2023-05-08T20:58:23;8.90;97.00
21282;DHT22;10800;53.096;18.328;2023-05-08T21:03:29;8.90;98.40
21282;DHT22;10800;53.096;18.328;2023-05-08T21:08:36;8.80;99.80
21282;DHT22;10800;53.096;18.328;2023-05-08T21:13:42;8.70;99.90
21282;DHT22;10800;53.096;18.328;2023-05-08T21:18:48;8.70;99.90
21282;DHT22;10800;53.096;18.328;2023-05-08T21:23:55;8.50;99.90
21282;DHT22;10800;53.096;18.328;2023-05-08T21:29:03;8.40;99.90
21282;DHT22;10800;53.096;18.328;2023-05-08T21:34:18;8.20;99.90
21282;DHT22;10800;53.096;18.328;2023-05-08T21:39:26;8.20;99.90
21282;DHT22;10800;53.096;18.328;2023-05-08T21:44:31;8.00;99.90
21282;DHT22;10800;53.096;18.328;2023-05-08T21:49:36;7.90;99.90
21282;DHT22;10800;53.096;18.328;2023-05-08T21:54:41;7.80;99.90
21282;DHT22;10800;53.096;18.328;2023-05-08T21:59:47;7.70;99.90
21282;DHT22;10800;53.096;18.328;2023-05-08T22:04:52;7.60;99.90
21282;DHT22;10800;53.096;18.328;2023-05-08T22:09:58;7.50;99.90
21282;DHT22;10800;53.096;18.328;2023-05-08T22:15:04;7.40;99.90
21282;DHT22;10800;53.096;18.328;2023-05-08T22:20:12;7.30;99.90
21282;DHT22;10800;53.096;18.328;2023-05-08T22:25:20;7.20;99.90
21282;DHT22;10800;53.096;18.328;2023-05-08T22:30:25;7.10;99.90
21282;DHT22;10800;53.096;18.328;2023-05-08T22:35:31;7.10;99.90
21282;DHT22;10800;53.096;18.328;2023-05-08T22:40:37;7.00;99.90
21282;DHT22;10800;53.096;18.328;2023-05-08T22:45:44;6.90;99.90
21282;DHT22;10800;53.096;18.328;2023-05-08T22:50:50;6.80;99.90
21282;DHT22;10800;53.096;18.328;2023-05-08T22:55:59;6.70;99.90
21282;DHT22;10800;53.096;18.328;2023-05-08T23:01:05;6.60;99.90
21282;DHT22;10800;53.096;18.328;2023-05-08T23:06:12;6.50;99.90
21282;DHT22;10800;53.096;18.328;2023-05-08T23:11:23;6.40;99.90
21282;DHT22;10800;53.096;18.328;2023-05-08T23:16:29;6.20;99.90
21282;DHT22;10800;53.096;18.328;2023-05-08T23:21:37;6.20;99.90
21282;DHT22;10800;53.096;18.328;2023-05-08T23:26:44;6.10;99.90
21282;DHT22;10800;53.096;18.328;2023-05-08T23:31:52;6.10;99.90
21282;DHT22;10800;53.096;18.328;2023-05-08T23:37:03;6.00;99.90
21282;DHT22;10800;53.096;18.328;2023-05-08T23:42:11;6.00;99.90
21282;DHT22;10800;53.096;18.328;2023-05-08T23:47:19;5.90;99.90
21282;DHT22;10800;53.096;18.328;2023-05-08T23:52:50;5.90;99.90
21282;DHT22;10800;53.096;18.328;2023-05-08T23:57:56;5.70;99.90
